sensor_id;sensor_type;location;lat;lon;timestamp;P1;durP1;ratioP1;P2;durP2;ratioP2
70552;SDS011;58103;53.362;-1.466;2022-08-21T00:01:29;4.4;;;1.6;;
70552;SDS011;58103;53.362;-1.466;2022-08-21T00:06:29;3.9;;;1.7;;
70552;SDS011;58103;53.362;-1.466;2022-08-21T00:11:29;7.0;;;1.7;;
70552;SDS011;58103;53.362;-1.466;2022-08-21T00:16:29;1.7;;;1.3;;
70552;SDS011;58103;53.362;-1.466;2022-08-21T00:21:29;3.5;;;1.5;;
70552;SDS011;58103;53.362;-1.466;2022-08-21T00:26:29;3.9;;;1.6;;
70552;SDS011;58103;53.362;-1.466;2022-08-21T00:31:29;3.9;;;1.5;;
70552;SDS011;58103;53.362;-1.466;2022-08-21T00:36:29;4.6;;;1.5;;
70552;SDS011;58103;53.362;-1.466;2022-08-21T00:41:29;4.3;;;1.8;;
70552;SDS011;58103;53.362;-1.466;2022-08-21T00:46:29;4.8;;;1.6;;
70552;SDS011;58103;53.362;-1.466;2022-08-21T00:51:32;3.5;;;1.2;;
70552;SDS011;58103;53.362;-1.466;2022-08-21T00:56:29;4.4;;;1.6;;
70552;SDS011;58103;53.362;-1.466;2022-08-21T01:01:29;7.5;;;1.7;;
70552;SDS011;58103;53.362;-1.466;2022-08-21T01:06:29;2.9;;;1.6;;
70552;SDS011;58103;53.362;-1.466;2022-08-21T01:11:29;6.1;;;1.6;;
70552;SDS011;58103;53.362;-1.466;2022-08-21T01:16:29;2.5;;;1.4;;
70552;SDS011;58103;53.362;-1.466;2022-08-21T01:21:29;3.1;;;1.5;;
70552;SDS011;58103;53.362;-1.466;2022-08-21T01:26:30;3.3;;;1.4;;
70552;SDS011;58103;53.362;-1.466;2022-08-21T01:31:29;2.2;;;1.1;;
70552;SDS011;58103;53.362;-1.466;2022-08-21T01:36:29;2.7;;;1.3;;
70552;SDS011;58103;53.362;-1.466;2022-08-21T01:41:29;5.4;;;1.4;;
70552;SDS011;58103;53.362;-1.466;2022-08-21T01:46:29;2.9;;;1.3;;
70552;SDS011;58103;53.362;-1.466;2022-08-21T01:51:29;3.0;;;1.5;;
70552;SDS011;58103;53.362;-1.466;2022-08-21T01:56:29;3.3;;;1.3;;
70552;SDS011;58103;53.362;-1.466;2022-08-21T02:01:29;2.2;;;1.1;;
70552;SDS011;58103;53.362;-1.466;2022-08-21T02:06:29;4.8;;;1.7;;
70552;SDS011;58103;53.362;-1.466;2022-08-21T02:11:29;2.4;;;1.3;;
70552;SDS011;58103;53.362;-1.466;2022-08-21T02:16:29;4.4;;;1.8;;
70552;SDS011;58103;53.362;-1.466;2022-08-21T02:21:29;6.0;;;1.5;;
70552;SDS011;58103;53.362;-1.466;2022-08-21T02:26:29;2.7;;;1.4;;
70552;SDS011;58103;53.362;-1.466;2022-08-21T02:31:29;4.9;;;1.5;;
70552;SDS011;58103;53.362;-1.466;2022-08-21T02:36:29;2.1;;;1.1;;
70552;SDS011;58103;53.362;-1.466;2022-08-21T02:41:29;2.7;;;1.5;;
70552;SDS011;58103;53.362;-1.466;2022-08-21T02:46:29;6.5;;;1.5;;
70552;SDS011;58103;53.362;-1.466;2022-08-21T02:51:29;2.0;;;1.3;;
70552;SDS011;58103;53.362;-1.466;2022-08-21T02:56:29;3.3;;;1.2;;
70552;SDS011;58103;53.362;-1.466;2022-08-21T03:01:29;2.7;;;1.4;;
70552;SDS011;58103;53.362;-1.466;2022-08-21T03:06:29;1.6;;;1.1;;
70552;SDS011;58103;53.362;-1.466;2022-08-21T03:11:29;2.8;;;1.3;;
70552;SDS011;58103;53.362;-1.466;2022-08-21T03:16:29;3.7;;;1.1;;
70552;SDS011;58103;53.362;-1.466;2022-08-21T03:21:29;3.1;;;1.3;;
70552;SDS011;58103;53.362;-1.466;2022-08-21T03:26:29;1.7;;;1.2;;
70552;SDS011;58103;53.362;-1.466;2022-08-21T03:31:29;3.8;;;1.5;;
70552;SDS011;58103;53.362;-1.466;2022-08-21T03:36:29;2.3;;;1.2;;
70552;SDS011;58103;53.362;-1.466;2022-08-21T03:41:29;2.4;;;1.4;;
70552;SDS011;58103;53.362;-1.466;2022-08-21T03:46:29;1.9;;;1.2;;
70552;SDS011;58103;53.362;-1.466;2022-08-21T03:51:29;1.6;;;1.2;;
70552;SDS011;58103;53.362;-1.466;2022-08-21T03:56:29;3.5;;;1.1;;
70552;SDS011;58103;53.362;-1.466;2022-08-21T04:01:29;2.6;;;1.3;;
70552;SDS011;58103;53.362;-1.466;2022-08-21T04:06:29;3.1;;;1.3;;
70552;SDS011;58103;53.362;-1.466;2022-08-21T04:11:29;3.1;;;1.3;;
70552;SDS011;58103;53.362;-1.466;2022-08-21T04:16:29;2.9;;;1.1;;
70552;SDS011;58103;53.362;-1.466;2022-08-21T04:21:29;2.0;;;1.2;;
70552;SDS011;58103;53.362;-1.466;2022-08-21T04:26:30;2.8;;;1.5;;
70552;SDS011;58103;53.362;-1.466;2022-08-21T04:31:29;2.6;;;1.1;;
70552;SDS011;58103;53.362;-1.466;2022-08-21T04:36:29;2.6;;;1.2;;
70552;SDS011;58103;53.362;-1.466;2022-08-21T04:41:29;1.6;;;1.3;;
70552;SDS011;58103;53.362;-1.466;2022-08-21T04:46:29;4.3;;;1.6;;
70552;SDS011;58103;53.362;-1.466;2022-08-21T04:51:30;1.9;;;1.3;;
70552;SDS011;58103;53.362;-1.466;2022-08-21T04:56:30;1.8;;;1.2;;
70552;SDS011;58103;53.362;-1.466;2022-08-21T05:01:30;2.7;;;1.2;;
70552;SDS011;58103;53.362;-1.466;2022-08-21T05:06:30;2.4;;;1.1;;
70552;SDS011;58103;53.362;-1.466;2022-08-21T05:11:29;2.5;;;1.3;;
70552;SDS011;58103;53.362;-1.466;2022-08-21T05:16:29;2.0;;;1.3;;
70552;SDS011;58103;53.362;-1.466;2022-08-21T05:21:29;2.2;;;1.2;;
70552;SDS011;58103;53.362;-1.466;2022-08-21T05:26:29;2.6;;;1.1;;
70552;SDS011;58103;53.362;-1.466;2022-08-21T05:31:29;2.7;;;1.4;;
70552;SDS011;58103;53.362;-1.466;2022-08-21T05:36:29;4.0;;;1.2;;
70552;SDS011;58103;53.362;-1.466;2022-08-21T05:41:29;2.4;;;1.2;;
70552;SDS011;58103;53.362;-1.466;2022-08-21T05:46:29;3.2;;;1.4;;
70552;SDS011;58103;53.362;-1.466;2022-08-21T05:51:29;3.4;;;1.6;;
70552;SDS011;58103;53.362;-1.466;2022-08-21T05:56:29;4.4;;;1.4;;
70552;SDS011;58103;53.362;-1.466;2022-08-21T06:01:29;2.2;;;1.0;;
70552;SDS011;58103;53.362;-1.466;2022-08-21T06:06:29;2.6;;;1.2;;
70552;SDS011;58103;53.362;-1.466;2022-08-21T06:11:29;2.8;;;1.4;;
70552;SDS011;58103;53.362;-1.466;2022-08-21T06:16:29;2.3;;;1.4;;
70552;SDS011;58103;53.362;-1.466;2022-08-21T06:21:29;1.8;;;1.3;;
70552;SDS011;58103;53.362;-1.466;2022-08-21T06:26:29;3.5;;;1.5;;
70552;SDS011;58103;53.362;-1.466;2022-08-21T06:31:29;1.8;;;1.2;;
70552;SDS011;58103;53.362;-1.466;2022-08-21T06:36:29;2.1;;;1.2;;
70552;SDS011;58103;53.362;-1.466;2022-08-21T06:41:29;2.5;;;1.3;;
70552;SDS011;58103;53.362;-1.466;2022-08-21T06:46:29;1.4;;;1.3;;
70552;SDS011;58103;53.362;-1.466;2022-08-21T06:51:29;2.2;;;1.5;;
70552;SDS011;58103;53.362;-1.466;2022-08-21T06:56:29;2.4;;;1.4;;
70552;SDS011;58103;53.362;-1.466;2022-08-21T07:01:29;2.2;;;1.3;;
70552;SDS011;58103;53.362;-1.466;2022-08-21T07:06:29;1.8;;;1.4;;
70552;SDS011;58103;53.362;-1.466;2022-08-21T07:11:29;2.5;;;1.7;;
70552;SDS011;58103;53.362;-1.466;2022-08-21T07:16:29;1.8;;;1.1;;
70552;SDS011;58103;53.362;-1.466;2022-08-21T07:21:30;2.2;;;1.3;;
70552;SDS011;58103;53.362;-1.466;2022-08-21T07:26:29;2.5;;;1.3;;
70552;SDS011;58103;53.362;-1.466;2022-08-21T07:31:30;2.9;;;1.7;;
70552;SDS011;58103;53.362;-1.466;2022-08-21T07:36:29;3.0;;;1.6;;
70552;SDS011;58103;53.362;-1.466;2022-08-21T07:41:30;5.5;;;1.6;;
70552;SDS011;58103;53.362;-1.466;2022-08-21T07:46:29;4.4;;;1.7;;
70552;SDS011;58103;53.362;-1.466;2022-08-21T07:51:30;3.2;;;1.6;;
70552;SDS011;58103;53.362;-1.466;2022-08-21T07:56:30;2.9;;;1.3;;
70552;SDS011;58103;53.362;-1.466;2022-08-21T08:01:29;1.7;;;1.4;;
70552;SDS011;58103;53.362;-1.466;2022-08-21T08:06:30;3.1;;;1.4;;
70552;SDS011;58103;53.362;-1.466;2022-08-21T08:11:30;2.9;;;1.6;;
70552;SDS011;58103;53.362;-1.466;2022-08-21T08:16:29;5.6;;;1.7;;
70552;SDS011;58103;53.362;-1.466;2022-08-21T08:21:30;3.8;;;1.2;;
70552;SDS011;58103;53.362;-1.466;2022-08-21T08:26:29;1.7;;;1.4;;
70552;SDS011;58103;53.362;-1.466;2022-08-21T08:31:30;2.3;;;1.2;;
70552;SDS011;58103;53.362;-1.466;2022-08-21T08:36:32;3.5;;;1.5;;
70552;SDS011;58103;53.362;-1.466;2022-08-21T08:41:30;1.8;;;1.1;;
70552;SDS011;58103;53.362;-1.466;2022-08-21T08:46:31;2.1;;;1.5;;
70552;SDS011;58103;53.362;-1.466;2022-08-21T08:51:32;1.9;;;1.4;;
70552;SDS011;58103;53.362;-1.466;2022-08-21T08:56:31;2.5;;;1.3;;
70552;SDS011;58103;53.362;-1.466;2022-08-21T09:01:30;3.4;;;1.7;;
70552;SDS011;58103;53.362;-1.466;2022-08-21T09:06:35;2.6;;;1.5;;
70552;SDS011;58103;53.362;-1.466;2022-08-21T09:11:31;3.0;;;1.5;;
70552;SDS011;58103;53.362;-1.466;2022-08-21T09:16:30;3.3;;;1.5;;
70552;SDS011;58103;53.362;-1.466;2022-08-21T09:21:32;1.9;;;1.2;;
70552;SDS011;58103;53.362;-1.466;2022-08-21T09:26:34;2.1;;;1.3;;
70552;SDS011;58103;53.362;-1.466;2022-08-21T09:31:34;1.7;;;1.3;;
70552;SDS011;58103;53.362;-1.466;2022-08-21T09:36:33;4.8;;;1.5;;
70552;SDS011;58103;53.362;-1.466;2022-08-21T09:41:31;2.6;;;1.4;;
70552;SDS011;58103;53.362;-1.466;2022-08-21T09:46:30;2.0;;;1.2;;
70552;SDS011;58103;53.362;-1.466;2022-08-21T09:51:31;2.5;;;1.2;;
70552;SDS011;58103;53.362;-1.466;2022-08-21T09:56:31;3.1;;;1.3;;
70552;SDS011;58103;53.362;-1.466;2022-08-21T10:01:30;3.6;;;1.1;;
70552;SDS011;58103;53.362;-1.466;2022-08-21T10:06:30;1.9;;;1.3;;
70552;SDS011;58103;53.362;-1.466;2022-08-21T10:11:30;3.6;;;1.4;;
70552;SDS011;58103;53.362;-1.466;2022-08-21T10:16:32;2.1;;;1.0;;
70552;SDS011;58103;53.362;-1.466;2022-08-21T10:21:30;2.9;;;1.4;;
70552;SDS011;58103;53.362;-1.466;2022-08-21T10:26:32;1.8;;;1.2;;
70552;SDS011;58103;53.362;-1.466;2022-08-21T10:31:32;5.6;;;1.4;;
70552;SDS011;58103;53.362;-1.466;2022-08-21T10:36:32;4.8;;;1.6;;
70552;SDS011;58103;53.362;-1.466;2022-08-21T10:41:39;1.2;;;1.0;;
70552;SDS011;58103;53.362;-1.466;2022-08-21T10:46:35;3.3;;;1.0;;
70552;SDS011;58103;53.362;-1.466;2022-08-21T10:51:32;3.7;;;1.1;;
70552;SDS011;58103;53.362;-1.466;2022-08-21T10:56:30;18.6;;;2.1;;
70552;SDS011;58103;53.362;-1.466;2022-08-21T11:01:31;6.6;;;1.8;;
70552;SDS011;58103;53.362;-1.466;2022-08-21T11:06:31;5.3;;;1.2;;
70552;SDS011;58103;53.362;-1.466;2022-08-21T11:11:31;7.3;;;1.6;;
70552;SDS011;58103;53.362;-1.466;2022-08-21T11:16:31;3.9;;;1.6;;
70552;SDS011;58103;53.362;-1.466;2022-08-21T11:21:33;9.4;;;2.1;;
70552;SDS011;58103;53.362;-1.466;2022-08-21T11:26:31;5.3;;;2.2;;
70552;SDS011;58103;53.362;-1.466;2022-08-21T11:31:34;8.1;;;2.2;;
70552;SDS011;58103;53.362;-1.466;2022-08-21T11:36:35;8.1;;;2.1;;
70552;SDS011;58103;53.362;-1.466;2022-08-21T11:41:32;9.4;;;1.9;;
70552;SDS011;58103;53.362;-1.466;2022-08-21T11:46:31;15.9;;;2.3;;
70552;SDS011;58103;53.362;-1.466;2022-08-21T11:51:31;6.0;;;1.9;;
70552;SDS011;58103;53.362;-1.466;2022-08-21T11:56:31;9.3;;;2.5;;
70552;SDS011;58103;53.362;-1.466;2022-08-21T12:01:30;5.1;;;2.1;;
70552;SDS011;58103;53.362;-1.466;2022-08-21T12:06:31;5.9;;;2.1;;
70552;SDS011;58103;53.362;-1.466;2022-08-21T12:11:30;6.7;;;2.2;;
70552;SDS011;58103;53.362;-1.466;2022-08-21T12:16:31;9.0;;;2.1;;
70552;SDS011;58103;53.362;-1.466;2022-08-21T12:21:30;11.4;;;2.2;;
70552;SDS011;58103;53.362;-1.466;2022-08-21T12:26:31;7.6;;;2.1;;
70552;SDS011;58103;53.362;-1.466;2022-08-21T12:31:30;7.2;;;1.9;;
70552;SDS011;58103;53.362;-1.466;2022-08-21T12:36:35;6.8;;;2.1;;
70552;SDS011;58103;53.362;-1.466;2022-08-21T12:41:40;6.0;;;2.1;;
70552;SDS011;58103;53.362;-1.466;2022-08-21T12:46:32;5.4;;;1.9;;
70552;SDS011;58103;53.362;-1.466;2022-08-21T12:51:31;7.2;;;2.2;;
70552;SDS011;58103;53.362;-1.466;2022-08-21T12:56:31;6.7;;;2.0;;
70552;SDS011;58103;53.362;-1.466;2022-08-21T13:01:31;6.4;;;2.0;;
70552;SDS011;58103;53.362;-1.466;2022-08-21T13:06:32;6.5;;;2.3;;
70552;SDS011;58103;53.362;-1.466;2022-08-21T13:11:31;6.0;;;2.0;;
70552;SDS011;58103;53.362;-1.466;2022-08-21T13:16:30;5.5;;;2.0;;
70552;SDS011;58103;53.362;-1.466;2022-08-21T13:21:31;4.8;;;2.2;;
70552;SDS011;58103;53.362;-1.466;2022-08-21T13:26:30;4.3;;;1.9;;
70552;SDS011;58103;53.362;-1.466;2022-08-21T13:31:30;3.5;;;1.6;;
70552;SDS011;58103;53.362;-1.466;2022-08-21T13:36:31;6.0;;;1.5;;
70552;SDS011;58103;53.362;-1.466;2022-08-21T13:41:31;7.2;;;2.0;;
70552;SDS011;58103;53.362;-1.466;2022-08-21T13:46:31;4.6;;;1.8;;
70552;SDS011;58103;53.362;-1.466;2022-08-21T13:51:30;3.3;;;1.5;;
70552;SDS011;58103;53.362;-1.466;2022-08-21T13:56:31;4.1;;;1.7;;
70552;SDS011;58103;53.362;-1.466;2022-08-21T14:01:31;3.2;;;1.7;;
70552;SDS011;58103;53.362;-1.466;2022-08-21T14:06:32;3.4;;;1.7;;
70552;SDS011;58103;53.362;-1.466;2022-08-21T14:11:32;4.9;;;1.7;;
70552;SDS011;58103;53.362;-1.466;2022-08-21T14:16:41;3.1;;;1.5;;
70552;SDS011;58103;53.362;-1.466;2022-08-21T14:21:32;4.4;;;1.6;;
70552;SDS011;58103;53.362;-1.466;2022-08-21T14:26:30;4.2;;;1.7;;
70552;SDS011;58103;53.362;-1.466;2022-08-21T14:31:30;2.0;;;1.5;;
70552;SDS011;58103;53.362;-1.466;2022-08-21T14:36:30;4.1;;;1.7;;
70552;SDS011;58103;53.362;-1.466;2022-08-21T14:41:30;5.6;;;1.6;;
70552;SDS011;58103;53.362;-1.466;2022-08-21T14:46:30;3.6;;;1.7;;
70552;SDS011;58103;53.362;-1.466;2022-08-21T14:51:30;3.3;;;1.7;;
70552;SDS011;58103;53.362;-1.466;2022-08-21T14:56:30;2.9;;;1.6;;
70552;SDS011;58103;53.362;-1.466;2022-08-21T15:01:30;2.3;;;1.8;;
70552;SDS011;58103;53.362;-1.466;2022-08-21T15:06:30;2.4;;;1.2;;
70552;SDS011;58103;53.362;-1.466;2022-08-21T15:11:30;3.5;;;1.7;;
70552;SDS011;58103;53.362;-1.466;2022-08-21T15:16:30;3.6;;;1.3;;
70552;SDS011;58103;53.362;-1.466;2022-08-21T15:21:30;2.0;;;1.3;;
70552;SDS011;58103;53.362;-1.466;2022-08-21T15:26:30;3.4;;;1.3;;
70552;SDS011;58103;53.362;-1.466;2022-08-21T15:31:30;1.7;;;1.3;;
70552;SDS011;58103;53.362;-1.466;2022-08-21T15:36:30;2.8;;;1.3;;
70552;SDS011;58103;53.362;-1.466;2022-08-21T15:41:30;4.9;;;1.6;;
70552;SDS011;58103;53.362;-1.466;2022-08-21T15:51:31;3.6;;;1.5;;
70552;SDS011;58103;53.362;-1.466;2022-08-21T15:56:32;2.2;;;1.4;;
70552;SDS011;58103;53.362;-1.466;2022-08-21T16:01:30;2.8;;;1.4;;
70552;SDS011;58103;53.362;-1.466;2022-08-21T16:06:30;4.3;;;1.6;;
70552;SDS011;58103;53.362;-1.466;2022-08-21T16:11:30;5.5;;;2.0;;
70552;SDS011;58103;53.362;-1.466;2022-08-21T16:16:30;3.0;;;1.7;;
70552;SDS011;58103;53.362;-1.466;2022-08-21T16:21:30;4.1;;;1.8;;
70552;SDS011;58103;53.362;-1.466;2022-08-21T16:26:30;4.5;;;1.5;;
70552;SDS011;58103;53.362;-1.466;2022-08-21T16:31:31;4.6;;;1.6;;
70552;SDS011;58103;53.362;-1.466;2022-08-21T16:36:30;3.4;;;1.8;;
70552;SDS011;58103;53.362;-1.466;2022-08-21T16:41:32;3.9;;;1.7;;
70552;SDS011;58103;53.362;-1.466;2022-08-21T16:46:32;7.4;;;2.2;;
70552;SDS011;58103;53.362;-1.466;2022-08-21T16:51:30;3.0;;;1.7;;
70552;SDS011;58103;53.362;-1.466;2022-08-21T16:56:30;3.8;;;1.7;;
70552;SDS011;58103;53.362;-1.466;2022-08-21T17:01:16;19.1;;;1.9;;
70552;SDS011;58103;53.362;-1.466;2022-08-21T17:06:16;5.0;;;1.6;;
70552;SDS011;58103;53.362;-1.466;2022-08-21T17:11:19;5.8;;;1.8;;
70552;SDS011;58103;53.362;-1.466;2022-08-21T17:16:16;11.8;;;2.4;;
70552;SDS011;58103;53.362;-1.466;2022-08-21T17:21:16;4.2;;;1.7;;
70552;SDS011;58103;53.362;-1.466;2022-08-21T17:26:16;5.5;;;1.7;;
70552;SDS011;58103;53.362;-1.466;2022-08-21T17:31:16;5.1;;;1.6;;
70552;SDS011;58103;53.362;-1.466;2022-08-21T17:36:16;7.7;;;2.2;;
70552;SDS011;58103;53.362;-1.466;2022-08-21T17:41:16;5.0;;;1.9;;
70552;SDS011;58103;53.362;-1.466;2022-08-21T17:46:17;7.0;;;2.0;;
70552;SDS011;58103;53.362;-1.466;2022-08-21T17:51:16;5.7;;;2.1;;
70552;SDS011;58103;53.362;-1.466;2022-08-21T17:56:17;4.0;;;1.7;;
70552;SDS011;58103;53.362;-1.466;2022-08-21T18:01:16;5.9;;;1.9;;
70552;SDS011;58103;53.362;-1.466;2022-08-21T18:06:16;4.3;;;1.8;;
70552;SDS011;58103;53.362;-1.466;2022-08-21T18:11:16;5.6;;;2.2;;
70552;SDS011;58103;53.362;-1.466;2022-08-21T18:16:16;6.8;;;2.1;;
70552;SDS011;58103;53.362;-1.466;2022-08-21T18:21:16;4.1;;;1.9;;
70552;SDS011;58103;53.362;-1.466;2022-08-21T18:26:17;4.4;;;1.8;;
70552;SDS011;58103;53.362;-1.466;2022-08-21T18:31:16;2.9;;;1.4;;
70552;SDS011;58103;53.362;-1.466;2022-08-21T18:36:16;1.5;;;1.3;;
70552;SDS011;58103;53.362;-1.466;2022-08-21T18:41:16;3.5;;;1.6;;
70552;SDS011;58103;53.362;-1.466;2022-08-21T18:46:16;4.6;;;1.9;;
70552;SDS011;58103;53.362;-1.466;2022-08-21T18:51:16;4.4;;;1.8;;
70552;SDS011;58103;53.362;-1.466;2022-08-21T18:56:16;6.0;;;1.7;;
70552;SDS011;58103;53.362;-1.466;2022-08-21T19:01:16;3.6;;;1.5;;
70552;SDS011;58103;53.362;-1.466;2022-08-21T19:06:16;14.3;;;2.0;;
70552;SDS011;58103;53.362;-1.466;2022-08-21T19:11:16;7.9;;;2.4;;
70552;SDS011;58103;53.362;-1.466;2022-08-21T19:16:16;19.7;;;2.9;;
70552;SDS011;58103;53.362;-1.466;2022-08-21T19:21:16;12.6;;;2.6;;
70552;SDS011;58103;53.362;-1.466;2022-08-21T19:26:26;11.7;;;2.5;;
70552;SDS011;58103;53.362;-1.466;2022-08-21T19:31:18;11.9;;;2.8;;
70552;SDS011;58103;53.362;-1.466;2022-08-21T19:36:16;9.2;;;3.4;;
70552;SDS011;58103;53.362;-1.466;2022-08-21T19:41:16;7.2;;;3.1;;
70552;SDS011;58103;53.362;-1.466;2022-08-21T19:51:16;8.8;;;3.0;;
70552;SDS011;58103;53.362;-1.466;2022-08-21T19:56:17;7.9;;;3.0;;
70552;SDS011;58103;53.362;-1.466;2022-08-21T20:01:17;10.1;;;3.1;;
70552;SDS011;58103;53.362;-1.466;2022-08-21T20:06:16;10.4;;;3.3;;
70552;SDS011;58103;53.362;-1.466;2022-08-21T20:11:18;9.3;;;4.3;;
70552;SDS011;58103;53.362;-1.466;2022-08-21T20:16:18;9.1;;;3.4;;
70552;SDS011;58103;53.362;-1.466;2022-08-21T20:21:16;11.7;;;3.9;;
70552;SDS011;58103;53.362;-1.466;2022-08-21T20:26:16;9.1;;;3.0;;
70552;SDS011;58103;53.362;-1.466;2022-08-21T20:31:16;4.8;;;2.8;;
70552;SDS011;58103;53.362;-1.466;2022-08-21T20:36:16;10.4;;;3.0;;
70552;SDS011;58103;53.362;-1.466;2022-08-21T20:41:16;5.3;;;2.8;;
70552;SDS011;58103;53.362;-1.466;2022-08-21T20:46:18;6.5;;;3.1;;
70552;SDS011;58103;53.362;-1.466;2022-08-21T20:51:19;7.2;;;3.2;;
70552;SDS011;58103;53.362;-1.466;2022-08-21T20:56:18;5.3;;;3.7;;
70552;SDS011;58103;53.362;-1.466;2022-08-21T21:01:16;7.7;;;3.1;;
70552;SDS011;58103;53.362;-1.466;2022-08-21T21:06:17;6.6;;;2.9;;
70552;SDS011;58103;53.362;-1.466;2022-08-21T21:11:19;6.6;;;3.1;;
70552;SDS011;58103;53.362;-1.466;2022-08-21T21:16:18;7.3;;;3.5;;
70552;SDS011;58103;53.362;-1.466;2022-08-21T21:21:17;14.3;;;3.6;;
70552;SDS011;58103;53.362;-1.466;2022-08-21T21:26:17;7.0;;;3.3;;
70552;SDS011;58103;53.362;-1.466;2022-08-21T21:31:16;6.3;;;3.0;;
70552;SDS011;58103;53.362;-1.466;2022-08-21T21:36:19;7.3;;;3.2;;
70552;SDS011;58103;53.362;-1.466;2022-08-21T21:41:18;7.9;;;3.3;;
70552;SDS011;58103;53.362;-1.466;2022-08-21T21:46:20;10.7;;;3.8;;
70552;SDS011;58103;53.362;-1.466;2022-08-21T21:51:18;8.7;;;4.1;;
70552;SDS011;58103;53.362;-1.466;2022-08-21T21:56:20;6.9;;;3.6;;
70552;SDS011;58103;53.362;-1.466;2022-08-21T22:01:20;7.8;;;3.3;;
70552;SDS011;58103;53.362;-1.466;2022-08-21T22:06:21;7.4;;;3.1;;
70552;SDS011;58103;53.362;-1.466;2022-08-21T22:11:18;8.2;;;2.9;;
70552;SDS011;58103;53.362;-1.466;2022-08-21T22:16:16;6.6;;;3.2;;
70552;SDS011;58103;53.362;-1.466;2022-08-21T22:21:18;5.7;;;3.2;;
70552;SDS011;58103;53.362;-1.466;2022-08-21T22:26:17;7.7;;;3.2;;
70552;SDS011;58103;53.362;-1.466;2022-08-21T22:31:19;6.2;;;3.2;;
70552;SDS011;58103;53.362;-1.466;2022-08-21T22:36:17;5.7;;;3.0;;
70552;SDS011;58103;53.362;-1.466;2022-08-21T22:41:17;6.8;;;3.4;;
70552;SDS011;58103;53.362;-1.466;2022-08-21T22:46:17;4.6;;;2.8;;
70552;SDS011;58103;53.362;-1.466;2022-08-21T22:51:23;7.4;;;3.1;;
70552;SDS011;58103;53.362;-1.466;2022-08-21T22:56:25;5.6;;;2.7;;
70552;SDS011;58103;53.362;-1.466;2022-08-21T23:01:31;4.3;;;2.2;;
70552;SDS011;58103;53.362;-1.466;2022-08-21T23:06:21;5.9;;;2.6;;
70552;SDS011;58103;53.362;-1.466;2022-08-21T23:11:19;5.2;;;2.5;;
70552;SDS011;58103;53.362;-1.466;2022-08-21T23:16:25;5.4;;;2.3;;
70552;SDS011;58103;53.362;-1.466;2022-08-21T23:21:18;6.8;;;2.7;;
70552;SDS011;58103;53.362;-1.466;2022-08-21T23:26:18;12.3;;;2.6;;
70552;SDS011;58103;53.362;-1.466;2022-08-21T23:31:18;8.4;;;2.9;;
70552;SDS011;58103;53.362;-1.466;2022-08-21T23:36:18;11.7;;;2.8;;
70552;SDS011;58103;53.362;-1.466;2022-08-21T23:41:19;8.2;;;2.8;;
70552;SDS011;58103;53.362;-1.466;2022-08-21T23:46:21;8.8;;;2.8;;
70552;SDS011;58103;53.362;-1.466;2022-08-21T23:51:18;6.8;;;2.4;;
70552;SDS011;58103;53.362;-1.466;2022-08-21T23:56:19;6.6;;;2.2;;
